Terminal Aerodrome Forecast
Issued by NWS North Platte, NE

Home | Current Version | Previous Version | Graphics & Text | Print | Product List | Glossary On
Versions: 1 2 3 4 5 6 7 8 9 10 11 12 13 14 15 16 17
000
FTUS43 KLBF 271732
TAFVTN
TAF
KVTN 271732Z 2718/2818 01012KT 5SM -SHRA BKN025 OVC060
     FM272300 04010KT P6SM BKN040
     FM280800 32005KT P6SM BKN080 BKN120
     FM281200 29011KT P6SM SCT050 BKN070=

USA.gov is the U.S. government's official web portal to all federal, state and local government web resources and services.